createdAt,value
2022-11-16T00:01:24.694Z,94.21
2022-11-16T00:03:53.936Z,93.99
2022-11-16T00:06:23.798Z,94.00
2022-11-16T00:09:19.600Z,94.17
2022-11-16T00:11:58.089Z,95.25
2022-11-16T00:14:31.691Z,94.91
2022-11-16T00:17:01.392Z,96.05
2022-11-16T00:19:30.144Z,96.00
2022-11-16T00:21:58.502Z,95.64
2022-11-16T00:24:26.847Z,94.95
2022-11-16T00:26:56.144Z,95.27
2022-11-16T00:29:26.410Z,94.77
2022-11-16T00:31:55.524Z,94.20
2022-11-16T00:34:24.466Z,94.87
2022-11-16T00:36:53.145Z,95.35
2022-11-16T00:39:21.418Z,95.72
2022-11-16T00:41:50.400Z,95.52
2022-11-16T00:44:19.093Z,95.22
2022-11-16T00:46:47.279Z,94.98
2022-11-16T00:49:15.404Z,95.01
2022-11-16T00:51:43.873Z,95.64
2022-11-16T00:54:12.677Z,95.10
2022-11-16T00:56:41.327Z,94.92
2022-11-16T00:59:09.493Z,94.79
2022-11-16T01:01:37.837Z,95.04
2022-11-16T01:04:07.662Z,95.13
2022-11-16T01:06:37.461Z,95.26
2022-11-16T01:09:05.630Z,94.86
2022-11-16T01:11:52.381Z,95.27
2022-11-16T01:14:20.536Z,95.03
2022-11-16T01:16:51.742Z,95.55
2022-11-16T01:19:21.839Z,95.55
2022-11-16T01:21:50.123Z,96.49
2022-11-16T01:24:18.299Z,96.80
2022-11-16T01:26:46.550Z,96.50
2022-11-16T01:29:16.444Z,96.51
2022-11-16T01:31:49.997Z,96.08
2022-11-16T01:34:18.262Z,95.97
2022-11-16T01:36:47.198Z,95.77
2022-11-16T01:39:16.892Z,95.90
2022-11-16T01:41:50.111Z,96.03
2022-11-16T01:44:34.062Z,95.78
2022-11-16T01:47:16.255Z,95.65
2022-11-16T01:49:54.931Z,96.61
2022-11-16T01:52:35.697Z,96.01
2022-11-16T01:55:04.890Z,96.15
2022-11-16T01:57:47.248Z,96.47
2022-11-16T02:00:16.964Z,96.12
2022-11-16T02:02:52.219Z,95.62
2022-11-16T02:06:17.120Z,95.90
2022-11-16T02:09:32.740Z,95.31
2022-11-16T02:12:22.079Z,95.93
2022-11-16T02:15:24.268Z,95.38
2022-11-16T02:18:28.712Z,94.45
2022-11-16T02:21:34.938Z,94.20
2022-11-16T02:24:24.408Z,94.25
2022-11-16T02:27:18.265Z,93.75
2022-11-16T02:29:53.245Z,93.40
2022-11-16T02:32:53.737Z,92.73
2022-11-16T02:35:31.169Z,92.93
2022-11-16T02:38:17.286Z,92.67
2022-11-16T02:40:52.838Z,91.62
2022-11-16T02:43:38.741Z,91.73
2022-11-16T02:46:14.043Z,92.20
2022-11-16T02:48:54.275Z,92.49
2022-11-16T02:51:24.700Z,91.80
2022-11-16T02:54:13.077Z,91.91
2022-11-16T02:57:02.431Z,92.60
2022-11-16T02:59:44.224Z,92.96
2022-11-16T03:02:39.990Z,92.99
2022-11-16T03:05:32.050Z,92.79
2022-11-16T03:08:18.169Z,92.68
2022-11-16T03:11:11.666Z,92.23
2022-11-16T03:13:41.606Z,91.87
2022-11-16T03:16:27.549Z,91.92
2022-11-16T03:19:00.341Z,91.90
2022-11-16T03:22:06.891Z,91.86
2022-11-16T03:24:36.758Z,91.74
2022-11-16T03:27:39.156Z,91.76
2022-11-16T03:30:15.136Z,92.50
2022-11-16T03:32:56.293Z,92.25
2022-11-16T03:35:41.292Z,91.74
2022-11-16T03:38:12.269Z,91.77
2022-11-16T03:40:45.838Z,91.21
2022-11-16T03:43:17.084Z,91.32
2022-11-16T03:45:46.974Z,90.60
2022-11-16T03:48:15.000Z,90.79
2022-11-16T03:50:44.001Z,90.71
2022-11-16T03:53:12.074Z,90.29
2022-11-16T03:55:40.222Z,90.61
2022-11-16T03:58:08.524Z,89.97
2022-11-16T04:00:36.817Z,89.54
2022-11-16T04:03:09.772Z,89.62
2022-11-16T04:05:56.410Z,90.42
2022-11-16T04:08:45.111Z,90.44
2022-11-16T04:11:35.475Z,89.66
2022-11-16T04:14:23.233Z,89.98
2022-11-16T04:17:09.865Z,89.83
2022-11-16T04:19:58.568Z,89.36
2022-11-16T04:22:58.685Z,89.87
2022-11-16T04:25:31.982Z,89.45
2022-11-16T04:28:16.421Z,89.58
2022-11-16T04:31:18.204Z,89.61
2022-11-16T04:34:11.802Z,89.31
2022-11-16T04:37:01.820Z,89.47
2022-11-16T04:39:30.996Z,89.96
2022-11-16T04:42:14.136Z,90.25
2022-11-16T04:45:01.118Z,90.47
2022-11-16T04:47:33.422Z,89.97
2022-11-16T04:50:01.221Z,89.58
2022-11-16T04:52:29.719Z,89.24
2022-11-16T04:54:57.812Z,89.07
2022-11-16T04:57:25.738Z,89.56
2022-11-16T04:59:53.542Z,90.21
2022-11-16T05:02:21.340Z,89.72
2022-11-16T05:04:57.697Z,89.64
2022-11-16T05:07:26.270Z,90.38
2022-11-16T05:10:00.955Z,91.63
2022-11-16T05:12:29.894Z,91.19
2022-11-16T05:15:00.381Z,90.80
2022-11-16T05:17:30.035Z,90.66
2022-11-16T05:20:17.976Z,91.49
2022-11-16T05:22:57.824Z,90.55
2022-11-16T05:25:33.787Z,90.44
2022-11-16T05:28:05.398Z,90.11
2022-11-16T05:30:36.541Z,90.11
2022-11-16T05:33:04.499Z,90.55
2022-11-16T05:35:34.570Z,89.96
2022-11-16T05:38:02.540Z,89.75
2022-11-16T05:40:32.941Z,89.92
2022-11-16T05:43:01.784Z,90.10
2022-11-16T05:45:31.696Z,89.83
2022-11-16T05:48:00.219Z,89.39
2022-11-16T05:50:28.074Z,89.73
2022-11-16T05:53:07.370Z,89.59
2022-11-16T05:55:36.016Z,89.03
2022-11-16T05:58:03.849Z,89.03
2022-11-16T06:00:31.889Z,89.31
2022-11-16T06:02:59.935Z,89.55
2022-11-16T06:05:30.804Z,89.13
2022-11-16T06:07:59.540Z,88.51
2022-11-16T06:10:27.355Z,88.56
2022-11-16T06:12:55.431Z,88.73
2022-11-16T06:15:23.964Z,88.77
2022-11-16T06:17:51.738Z,89.07
2022-11-16T06:20:21.186Z,88.35
2022-11-16T06:22:49.004Z,87.91
2022-11-16T06:25:18.264Z,87.80
2022-11-16T06:27:46.072Z,87.67
2022-11-16T06:30:16.755Z,87.43
2022-11-16T06:32:45.794Z,87.80
2022-11-16T06:35:13.610Z,88.04
2022-11-16T06:37:41.464Z,87.72
2022-11-16T06:40:12.944Z,87.50
2022-11-16T06:42:43.379Z,87.37
2022-11-16T06:45:14.898Z,87.52
2022-11-16T06:47:46.822Z,87.28
2022-11-16T06:50:19.119Z,86.65
2022-11-16T06:52:49.734Z,86.41
2022-11-16T06:55:18.182Z,86.29
2022-11-16T06:57:46.452Z,86.63
2022-11-16T07:00:17.737Z,86.54
2022-11-16T07:02:46.366Z,86.89
2022-11-16T07:05:16.325Z,86.76
2022-11-16T07:07:44.191Z,86.61
2022-11-16T07:10:13.445Z,86.13
2022-11-16T07:12:42.823Z,86.36
2022-11-16T07:15:11.498Z,86.28
2022-11-16T07:17:42.852Z,85.94
2022-11-16T07:20:12.026Z,85.91
2022-11-16T07:22:40.720Z,86.12
2022-11-16T07:25:11.957Z,85.79
2022-11-16T07:27:39.820Z,85.22
2022-11-16T07:30:08.763Z,85.10
2022-11-16T07:32:45.609Z,84.91
2022-11-16T07:35:33.775Z,85.94
2022-11-16T07:38:03.190Z,86.15
2022-11-16T07:40:31.851Z,85.48
2022-11-16T07:42:59.828Z,85.11
2022-11-16T07:45:34.453Z,84.76
2022-11-16T07:48:07.156Z,84.95
2022-11-16T07:50:54.137Z,85.38
2022-11-16T07:53:24.302Z,85.33
2022-11-16T07:55:54.400Z,85.35
2022-11-16T07:58:23.461Z,84.91
2022-11-16T08:00:51.590Z,84.81
2022-11-16T08:03:24.452Z,84.55
2022-11-16T08:06:21.125Z,84.40
2022-11-16T08:08:52.427Z,84.13
2022-11-16T08:11:25.453Z,84.34
2022-11-16T08:13:55.774Z,84.64
2022-11-16T08:16:24.123Z,84.67
2022-11-16T08:18:56.975Z,84.62
2022-11-16T08:21:25.000Z,84.65
2022-11-16T08:23:58.127Z,84.85
2022-11-16T08:26:27.492Z,85.93
2022-11-16T08:29:00.114Z,86.02
2022-11-16T08:31:31.205Z,86.67
2022-11-16T08:34:12.557Z,88.70
2022-11-16T08:36:43.553Z,89.86
2022-11-16T08:39:11.546Z,89.93
2022-11-16T08:41:42.174Z,89.84
2022-11-16T08:44:11.640Z,90.43
2022-11-16T08:46:41.703Z,90.41
2022-11-16T08:49:17.541Z,90.54
2022-11-16T08:51:45.489Z,90.58
2022-11-16T08:54:13.425Z,90.37
2022-11-16T08:56:42.039Z,91.23
2022-11-16T08:59:10.281Z,90.93
2022-11-16T09:01:41.203Z,90.02
2022-11-16T09:04:09.635Z,89.48
2022-11-16T09:06:37.931Z,89.56
2022-11-16T09:09:05.952Z,88.52
2022-11-16T09:11:34.086Z,88.47
2022-11-16T09:14:02.271Z,88.12
2022-11-16T09:16:30.289Z,87.59
2022-11-16T09:18:58.245Z,87.27
2022-11-16T09:21:30.921Z,86.55
2022-11-16T09:23:59.378Z,86.71
2022-11-16T09:26:27.488Z,86.35
2022-11-16T09:28:58.825Z,86.47
2022-11-16T09:31:28.797Z,85.94
2022-11-16T09:33:59.075Z,83.18
2022-11-16T09:36:28.835Z,82.83
2022-11-16T09:42:16.724Z,84.10
2022-11-16T09:45:09.119Z,84.22
2022-11-16T09:47:57.646Z,84.00
2022-11-16T09:50:46.562Z,84.44
2022-11-16T09:53:26.205Z,84.26
2022-11-16T09:56:28.702Z,83.86
2022-11-16T09:59:31.828Z,84.30
2022-11-16T10:02:24.428Z,84.29
2022-11-16T10:05:10.722Z,83.97
2022-11-16T10:07:58.495Z,83.75
2022-11-16T10:10:37.675Z,83.70
2022-11-16T10:13:35.539Z,83.13
2022-11-16T10:16:31.132Z,82.99
2022-11-16T10:19:18.313Z,83.33
2022-11-16T10:22:13.335Z,83.80
2022-11-16T10:25:08.873Z,83.60
2022-11-16T10:28:17.742Z,83.76
2022-11-16T10:31:09.493Z,83.97
2022-11-16T10:33:39.500Z,84.28
2022-11-16T10:36:16.122Z,83.97
2022-11-16T10:38:44.269Z,84.03
2022-11-16T10:41:23.713Z,84.28
2022-11-16T10:43:51.834Z,84.74
2022-11-16T10:46:42.164Z,84.30
2022-11-16T10:49:36.910Z,83.42
2022-11-16T10:52:04.935Z,83.38
2022-11-16T10:54:32.911Z,83.40
2022-11-16T10:57:14.040Z,83.39
2022-11-16T10:59:55.549Z,82.65
2022-11-16T11:02:35.140Z,82.71
2022-11-16T11:05:22.014Z,82.53
2022-11-16T11:08:00.044Z,82.51
2022-11-16T11:10:54.136Z,82.67
2022-11-16T11:13:26.727Z,82.99
2022-11-16T11:16:16.699Z,83.25
2022-11-16T11:18:44.882Z,83.51
2022-11-16T11:21:19.329Z,83.68
2022-11-16T11:23:52.411Z,83.61
2022-11-16T11:26:40.887Z,83.28
2022-11-16T11:29:31.565Z,83.26
2022-11-16T11:32:23.883Z,82.95
2022-11-16T11:34:56.094Z,82.66
2022-11-16T11:37:35.102Z,82.73
2022-11-16T11:40:26.682Z,83.13
2022-11-16T11:43:01.633Z,82.19
2022-11-16T11:45:44.795Z,81.56
2022-11-16T11:48:43.030Z,82.15
2022-11-16T11:51:35.719Z,81.71
2022-11-16T11:54:05.100Z,80.92
2022-11-16T11:56:34.131Z,81.45
2022-11-16T11:59:04.779Z,82.07
2022-11-16T12:02:07.222Z,81.83
2022-11-16T12:05:16.157Z,81.67
2022-11-16T12:08:23.158Z,81.74
2022-11-16T12:11:17.904Z,82.04
2022-11-16T12:14:00.843Z,82.48
2022-11-16T12:16:58.057Z,81.31
2022-11-16T12:20:15.214Z,80.67
2022-11-16T12:23:38.901Z,81.04
2022-11-16T12:26:16.879Z,80.58
2022-11-16T12:29:05.933Z,80.72
2022-11-16T12:32:01.797Z,81.53
2022-11-16T12:35:06.810Z,81.53
2022-11-16T12:38:10.093Z,81.44
2022-11-16T12:40:59.542Z,81.79
2022-11-16T12:43:53.458Z,81.38
2022-11-16T12:47:18.043Z,80.47
2022-11-16T12:50:08.616Z,80.36
2022-11-16T12:53:05.486Z,80.80
2022-11-16T12:56:05.855Z,81.22
2022-11-16T12:59:01.872Z,80.24
2022-11-16T13:02:07.097Z,79.19
2022-11-16T13:04:47.270Z,79.60
2022-11-16T13:07:31.845Z,79.24
2022-11-16T13:10:13.736Z,79.03
2022-11-16T13:12:45.565Z,78.94
2022-11-16T13:15:20.764Z,79.27
2022-11-16T13:18:15.613Z,78.87
2022-11-16T13:21:17.818Z,78.87
2022-11-16T13:24:02.721Z,78.66
2022-11-16T13:26:45.009Z,79.33
2022-11-16T13:29:36.952Z,79.22
2022-11-16T13:32:21.386Z,79.01
2022-11-16T13:34:52.094Z,79.66
2022-11-16T13:37:38.620Z,80.20
2022-11-16T13:40:06.859Z,80.14
2022-11-16T13:42:45.455Z,79.52
2022-11-16T13:45:21.981Z,79.48
2022-11-16T13:47:56.768Z,79.08
2022-11-16T13:50:38.957Z,78.81
2022-11-16T13:56:50.151Z,79.31
2022-11-16T13:59:25.358Z,79.46
2022-11-16T14:02:04.594Z,80.00
2022-11-16T14:04:54.678Z,79.75
2022-11-16T14:07:49.687Z,79.26
2022-11-16T14:10:33.241Z,79.62
2022-11-16T14:13:06.136Z,80.40
2022-11-16T14:15:36.388Z,80.64
2022-11-16T14:18:07.039Z,80.59
2022-11-16T14:20:37.839Z,80.37
2022-11-16T14:23:30.552Z,81.00
2022-11-16T14:26:19.582Z,80.09
2022-11-16T14:29:06.599Z,80.09
2022-11-16T14:31:50.950Z,80.09
2022-11-16T14:34:41.595Z,79.91
2022-11-16T14:37:21.963Z,80.44
2022-11-16T14:39:53.754Z,80.03
2022-11-16T14:42:38.177Z,79.76
2022-11-16T14:45:29.397Z,79.79
2022-11-16T14:48:13.291Z,81.09
2022-11-16T14:50:46.231Z,80.85
2022-11-16T14:53:19.631Z,80.77
2022-11-16T14:55:47.520Z,80.60
2022-11-16T14:58:22.624Z,80.56
2022-11-16T15:00:59.535Z,80.65
2022-11-16T15:03:34.458Z,80.52
2022-11-16T15:06:06.181Z,81.22
2022-11-16T15:08:51.736Z,81.83
2022-11-16T15:11:54.752Z,82.01
2022-11-16T15:14:31.552Z,82.26
2022-11-16T15:17:00.270Z,81.97
2022-11-16T15:19:32.046Z,82.00
2022-11-16T15:22:04.146Z,81.88
2022-11-16T15:24:35.082Z,81.74
2022-11-16T15:27:38.049Z,81.86
2022-11-16T15:30:45.918Z,81.88
2022-11-16T15:33:24.341Z,82.06
2022-11-16T15:35:53.997Z,82.35
2022-11-16T15:38:26.274Z,82.61
2022-11-16T15:41:05.511Z,82.98
2022-11-16T15:44:01.256Z,82.69
2022-11-16T15:46:33.984Z,83.40
2022-11-16T15:49:02.778Z,83.78
2022-11-16T15:51:31.137Z,83.71
2022-11-16T15:54:23.805Z,83.56
2022-11-16T15:56:55.673Z,84.27
2022-11-16T15:59:33.955Z,84.24
2022-11-16T16:02:03.228Z,84.33
2022-11-16T16:04:31.343Z,84.71
2022-11-16T16:07:00.936Z,83.83
2022-11-16T16:09:39.269Z,84.25
2022-11-16T16:12:26.399Z,84.08
2022-11-16T16:15:21.052Z,84.37
2022-11-16T16:17:50.594Z,83.76
2022-11-16T16:20:25.310Z,83.82
2022-11-16T16:22:54.328Z,83.69
2022-11-16T16:25:34.536Z,83.66
2022-11-16T16:28:03.138Z,83.34
2022-11-16T16:30:34.743Z,83.80
2022-11-16T16:33:02.706Z,83.40
2022-11-16T16:35:30.741Z,83.17
2022-11-16T16:38:01.070Z,83.16
2022-11-16T16:40:29.234Z,83.31
2022-11-16T16:42:58.058Z,83.45
2022-11-16T16:45:38.733Z,83.44
2022-11-16T16:48:09.077Z,82.70
2022-11-16T16:50:37.889Z,83.21
2022-11-16T16:53:06.067Z,83.13
2022-11-16T16:55:37.691Z,83.33
2022-11-16T16:58:05.912Z,82.90
2022-11-16T17:00:34.291Z,82.85
2022-11-16T17:03:02.409Z,83.10
2022-11-16T17:05:33.925Z,82.69
2022-11-16T17:08:01.821Z,82.80
2022-11-16T17:10:29.805Z,83.19
2022-11-16T17:12:58.404Z,84.52
2022-11-16T17:15:26.372Z,85.55
2022-11-16T17:17:54.433Z,85.64
2022-11-16T17:20:22.309Z,85.34
2022-11-16T17:22:50.167Z,86.60
2022-11-16T17:25:18.190Z,86.44
2022-11-16T17:27:46.224Z,85.88
2022-11-16T17:30:15.081Z,85.88
2022-11-16T17:32:43.066Z,86.14
2022-11-16T17:35:11.121Z,85.89
2022-11-16T17:37:39.198Z,86.10
2022-11-16T17:40:08.799Z,86.25
2022-11-16T17:42:36.836Z,86.19
2022-11-16T17:45:05.981Z,86.07
2022-11-16T17:47:34.053Z,85.59
2022-11-16T17:50:02.073Z,86.43
2022-11-16T17:52:30.100Z,85.97
2022-11-16T17:54:58.021Z,85.85
2022-11-16T17:57:26.103Z,85.27
2022-11-16T17:59:54.054Z,85.93
2022-11-16T18:02:22.074Z,85.60
2022-11-16T18:04:51.418Z,85.13
2022-11-16T18:07:19.693Z,85.08
2022-11-16T18:09:47.872Z,85.07
2022-11-16T18:12:16.129Z,85.17
2022-11-16T18:14:59.943Z,85.20
2022-11-16T18:17:34.817Z,84.57
2022-11-16T18:20:05.005Z,85.14
2022-11-16T18:22:33.105Z,84.83
2022-11-16T18:25:02.373Z,84.43
2022-11-16T18:27:31.850Z,84.26
2022-11-16T18:29:59.901Z,83.36
2022-11-16T18:32:29.512Z,82.63
2022-11-16T18:34:57.586Z,82.81
2022-11-16T18:37:25.450Z,82.75
2022-11-16T18:39:53.488Z,82.92
2022-11-16T18:42:21.411Z,82.73
2022-11-16T18:44:51.264Z,81.63
2022-11-16T18:47:19.343Z,81.74
2022-11-16T18:49:47.270Z,81.76
2022-11-16T18:52:15.116Z,81.42
2022-11-16T18:54:43.039Z,82.31
2022-11-16T18:57:10.965Z,82.01
2022-11-16T18:59:38.823Z,81.08
2022-11-16T19:02:06.929Z,80.29
2022-11-16T19:04:34.949Z,80.42
2022-11-16T19:07:02.996Z,80.23
2022-11-16T19:09:31.317Z,80.33
2022-11-16T19:11:59.292Z,79.80
2022-11-16T19:14:27.109Z,79.75
2022-11-16T19:16:57.321Z,79.28
2022-11-16T19:19:27.666Z,79.50
2022-11-16T19:21:56.923Z,79.09
2022-11-16T19:24:24.935Z,79.29
2022-11-16T19:26:52.960Z,80.04
2022-11-16T19:29:20.900Z,80.95
2022-11-16T19:31:48.813Z,80.89
2022-11-16T19:34:16.686Z,80.13
2022-11-16T19:36:44.682Z,81.35
2022-11-16T19:39:12.616Z,81.21
2022-11-16T19:41:40.714Z,80.59
2022-11-16T19:44:11.288Z,80.91
2022-11-16T19:50:21.749Z,80.02
2022-11-16T19:50:28.552Z,80.02
2022-11-16T19:54:52.536Z,79.78
2022-11-16T19:58:10.299Z,80.14
2022-11-16T19:59:43.328Z,80.87
2022-11-16T20:02:28.705Z,80.16
2022-11-16T20:04:56.885Z,80.37
2022-11-16T20:07:25.393Z,79.80
2022-11-16T20:09:54.514Z,79.37
2022-11-16T20:12:22.513Z,79.22
2022-11-16T20:14:52.999Z,79.17
2022-11-16T20:17:26.556Z,79.38
2022-11-16T20:19:57.614Z,79.25
2022-11-16T20:22:28.598Z,79.38
2022-11-16T20:24:56.602Z,79.13
2022-11-16T20:27:25.819Z,79.12
2022-11-16T20:29:54.971Z,79.89
2022-11-16T20:32:25.345Z,79.92
2022-11-16T20:34:53.379Z,79.70
2022-11-16T20:37:21.385Z,79.38
2022-11-16T20:39:52.713Z,79.77
2022-11-16T20:42:20.588Z,79.19
2022-11-16T20:44:48.541Z,79.36
2022-11-16T20:47:16.745Z,79.40
2022-11-16T20:49:44.794Z,79.64
2022-11-16T20:52:13.128Z,79.68
2022-11-16T20:54:58.450Z,79.51
2022-11-16T20:57:40.261Z,79.94
2022-11-16T21:00:16.849Z,79.54
2022-11-16T21:02:46.023Z,79.44
2022-11-16T21:05:13.968Z,79.92
2022-11-16T21:07:43.958Z,80.46
2022-11-16T21:10:20.946Z,80.38
2022-11-16T21:13:08.361Z,79.89
2022-11-16T21:15:36.264Z,79.83
2022-11-16T21:18:04.476Z,79.99
2022-11-16T21:20:32.373Z,79.97
2022-11-16T21:23:00.260Z,79.92
2022-11-16T21:25:28.093Z,80.58
2022-11-16T21:27:57.000Z,79.82
2022-11-16T21:30:24.824Z,80.44
2022-11-16T21:32:52.718Z,79.67
2022-11-16T21:35:20.983Z,80.66
2022-11-16T21:37:49.015Z,80.77
2022-11-16T21:40:17.064Z,80.37
2022-11-16T21:42:45.060Z,79.62
2022-11-16T21:45:24.509Z,79.63
2022-11-16T21:47:52.503Z,79.29
2022-11-16T21:50:35.781Z,79.87
2022-11-16T21:53:05.296Z,80.16
2022-11-16T21:55:33.824Z,80.12
2022-11-16T21:58:05.844Z,79.95
2022-11-16T22:04:16.243Z,80.15
2022-11-16T22:07:13.043Z,79.94
2022-11-16T22:09:41.035Z,80.37
2022-11-16T22:12:08.948Z,80.97
2022-11-16T22:14:39.309Z,81.02
2022-11-16T22:17:08.536Z,80.57
2022-11-16T22:19:36.482Z,81.02
2022-11-16T22:22:04.442Z,80.90
2022-11-16T22:24:32.473Z,80.44
2022-11-16T22:27:00.621Z,80.79
2022-11-16T22:29:28.517Z,80.78
2022-11-16T22:31:56.403Z,80.99
2022-11-16T22:34:24.426Z,81.46
2022-11-16T22:36:52.400Z,81.65
2022-11-16T22:39:22.781Z,81.88
2022-11-16T22:41:50.707Z,81.96
2022-11-16T22:44:18.570Z,81.27
2022-11-16T22:46:46.569Z,80.87
2022-11-16T22:49:14.401Z,81.36
2022-11-16T22:51:46.027Z,81.37
2022-11-16T22:54:15.636Z,81.24
2022-11-16T22:56:43.646Z,81.24
2022-11-16T22:59:12.536Z,81.25
2022-11-16T23:01:40.836Z,81.23
2022-11-16T23:04:09.586Z,80.93
2022-11-16T23:10:34.303Z,81.04
2022-11-16T23:13:16.789Z,81.09
2022-11-16T23:15:50.789Z,81.26
2022-11-16T23:18:19.679Z,81.01
2022-11-16T23:21:09.192Z,80.86
2022-11-16T23:23:57.128Z,81.64
2022-11-16T23:26:46.162Z,81.04
2022-11-16T23:29:14.135Z,81.66
2022-11-16T23:31:42.106Z,80.89
2022-11-16T23:34:09.958Z,81.08
2022-11-16T23:36:37.887Z,81.03
2022-11-16T23:39:05.873Z,81.37
2022-11-16T23:41:52.259Z,82.07
2022-11-16T23:44:20.196Z,81.77
2022-11-16T23:46:48.059Z,81.81
2022-11-16T23:49:15.960Z,81.63
2022-11-16T23:51:46.102Z,82.16
2022-11-16T23:54:14.026Z,80.87
2022-11-16T23:56:41.990Z,80.50
2022-11-16T23:59:09.906Z,81.44
